sensor_id;sensor_type;location;lat;lon;timestamp;P1;P2;P0
53698;PMS7003;68408;53.952;27.612;2023-08-31T00:01:02;10.4;8.7;6.9
53698;PMS7003;68408;53.952;27.612;2023-08-31T00:06:10;9.5;8.4;6.8
53698;PMS7003;68408;53.952;27.612;2023-08-31T00:10:32;9.1;8.3;6.6
53698;PMS7003;68408;53.952;27.612;2023-08-31T00:15:50;10.9;8.8;7.1
53698;PMS7003;68408;53.952;27.612;2023-08-31T00:20:30;9.3;8.3;6.5
53698;PMS7003;68408;53.952;27.612;2023-08-31T00:25:52;11.1;9.7;7.5
53698;PMS7003;68408;53.952;27.612;2023-08-31T00:31:10;9.5;8.6;6.6
53698;PMS7003;68408;53.952;27.612;2023-08-31T00:35:46;10.1;8.5;6.9
53698;PMS7003;68408;53.952;27.612;2023-08-31T00:40:42;11;9.5;7.6
53698;PMS7003;68408;53.952;27.612;2023-08-31T00:45:44;10;8.7;7
53698;PMS7003;68408;53.952;27.612;2023-08-31T00:51:02;12.5;11.2;8.9
53698;PMS7003;68408;53.952;27.612;2023-08-31T00:56:10;14.8;12.3;9.6
53698;PMS7003;68408;53.952;27.612;2023-08-31T01:01:01;15.5;13.1;10.2
53698;PMS7003;68408;53.952;27.612;2023-08-31T01:05:51;11.3;9.6;7.7
53698;PMS7003;68408;53.952;27.612;2023-08-31T01:10:38;11.8;9.9;8.3
53698;PMS7003;68408;53.952;27.612;2023-08-31T01:15:45;10.1;8.7;6.9
53698;PMS7003;68408;53.952;27.612;2023-08-31T01:21:09;10.5;8.8;7
53698;PMS7003;68408;53.952;27.612;2023-08-31T01:25:36;10.3;8.3;6.3
53698;PMS7003;68408;53.952;27.612;2023-08-31T01:30:42;8.9;7.9;6.3
53698;PMS7003;68408;53.952;27.612;2023-08-31T01:35:52;10.3;8.2;6.5
53698;PMS7003;68408;53.952;27.612;2023-08-31T01:40:40;10.7;8.8;6.6
53698;PMS7003;68408;53.952;27.612;2023-08-31T01:46:08;9.8;8.5;7.1
53698;PMS7003;68408;53.952;27.612;2023-08-31T01:50:46;12.5;10.9;8.2
53698;PMS7003;68408;53.952;27.612;2023-08-31T01:55:30;14.9;13.3;10.6
53698;PMS7003;68408;53.952;27.612;2023-08-31T02:00:46;13.4;11.8;9.1
53698;PMS7003;68408;53.952;27.612;2023-08-31T02:06:08;11.4;10.1;8
53698;PMS7003;68408;53.952;27.612;2023-08-31T02:11:00;12.1;10.3;8.2
53698;PMS7003;68408;53.952;27.612;2023-08-31T02:15:58;11.3;10;7.7
53698;PMS7003;68408;53.952;27.612;2023-08-31T02:20:42;13;10.6;8.4
53698;PMS7003;68408;53.952;27.612;2023-08-31T02:25:58;12.1;10.7;8.2
53698;PMS7003;68408;53.952;27.612;2023-08-31T02:31:10;13;10.7;8.6
53698;PMS7003;68408;53.952;27.612;2023-08-31T02:35:30;13.7;11.1;8.5
53698;PMS7003;68408;53.952;27.612;2023-08-31T02:40:36;13.7;11.5;8.4
53698;PMS7003;68408;53.952;27.612;2023-08-31T02:45:30;15.2;13.2;10.2
53698;PMS7003;68408;53.952;27.612;2023-08-31T02:51:10;21.1;17.1;13
53698;PMS7003;68408;53.952;27.612;2023-08-31T02:56:10;22.9;19.5;14.1
53698;PMS7003;68408;53.952;27.612;2023-08-31T03:01:06;27;23.2;17.1
53698;PMS7003;68408;53.952;27.612;2023-08-31T03:05:58;26.8;23.5;17.6
53698;PMS7003;68408;53.952;27.612;2023-08-31T03:10:42;25.9;21.1;15.3
53698;PMS7003;68408;53.952;27.612;2023-08-31T03:15:52;26.6;23.2;17
53698;PMS7003;68408;53.952;27.612;2023-08-31T03:21:10;21.8;18.5;14.1
53698;PMS7003;68408;53.952;27.612;2023-08-31T03:25:50;19.3;16.7;12.7
53698;PMS7003;68408;53.952;27.612;2023-08-31T03:30:30;19.4;16.4;12.6
53698;PMS7003;68408;53.952;27.612;2023-08-31T03:35:36;14.4;12.8;10.2
53698;PMS7003;68408;53.952;27.612;2023-08-31T03:40:36;13.8;11.8;9.1
53698;PMS7003;68408;53.952;27.612;2023-08-31T03:46:10;12.4;10.9;8.7
53698;PMS7003;68408;53.952;27.612;2023-08-31T03:51:10;17.8;15.3;11.6
53698;PMS7003;68408;53.952;27.612;2023-08-31T03:55:58;18.7;16.1;11.7
53698;PMS7003;68408;53.952;27.612;2023-08-31T04:00:42;17.7;15.3;11.9
53698;PMS7003;68408;53.952;27.612;2023-08-31T04:05:58;13.5;11.2;9.2
53698;PMS7003;68408;53.952;27.612;2023-08-31T04:11:10;13.4;11.9;9.3
53698;PMS7003;68408;53.952;27.612;2023-08-31T04:15:51;15;12.9;9.8
53698;PMS7003;68408;53.952;27.612;2023-08-31T04:20:36;13;11.6;9.1
53698;PMS7003;68408;53.952;27.612;2023-08-31T04:25:40;12.3;11.2;8.4
53698;PMS7003;68408;53.952;27.612;2023-08-31T04:30:30;12.7;11.6;9.2
53698;PMS7003;68408;53.952;27.612;2023-08-31T04:36:10;14.7;12.7;9.7
53698;PMS7003;68408;53.952;27.612;2023-08-31T04:41:02;16.9;15.2;11.4
53698;PMS7003;68408;53.952;27.612;2023-08-31T04:45:58;17.6;14.4;11.6
53698;PMS7003;68408;53.952;27.612;2023-08-31T04:50:36;16.7;14.6;11.6
53698;PMS7003;68408;53.952;27.612;2023-08-31T04:55:32;19.1;16.8;12.6
53698;PMS7003;68408;53.952;27.612;2023-08-31T05:00:38;15.8;14.2;11
53698;PMS7003;68408;53.952;27.612;2023-08-31T05:05:50;16;14.3;11.3
53698;PMS7003;68408;53.952;27.612;2023-08-31T05:10:30;17;15.7;12.3
53698;PMS7003;68408;53.952;27.612;2023-08-31T05:15:30;18;15.3;11.8
53698;PMS7003;68408;53.952;27.612;2023-08-31T05:20:34;17.9;15.9;12.4
53698;PMS7003;68408;53.952;27.612;2023-08-31T05:26:10;19.5;17.1;12.8
53698;PMS7003;68408;53.952;27.612;2023-08-31T05:31:03;19.6;16.7;12.7
53698;PMS7003;68408;53.952;27.612;2023-08-31T05:35:56;19.2;16.5;12.6
53698;PMS7003;68408;53.952;27.612;2023-08-31T05:40:30;16.9;15.2;11.6
53698;PMS7003;68408;53.952;27.612;2023-08-31T05:45:58;19.4;16.3;12.4
53698;PMS7003;68408;53.952;27.612;2023-08-31T05:51:10;19.8;16.1;12.6
53698;PMS7003;68408;53.952;27.612;2023-08-31T05:55:50;17.8;15.8;11.4
53698;PMS7003;68408;53.952;27.612;2023-08-31T06:00:30;13;11.3;8.7
53698;PMS7003;68408;53.952;27.612;2023-08-31T06:05:40;18.8;16.3;12.7
53698;PMS7003;68408;53.952;27.612;2023-08-31T06:11:02;15.9;13.2;10.4
53698;PMS7003;68408;53.952;27.612;2023-08-31T06:16:10;14.5;12.3;9.5
53698;PMS7003;68408;53.952;27.612;2023-08-31T06:21:02;13.2;12.2;9.7
53698;PMS7003;68408;53.952;27.612;2023-08-31T06:25:32;13.5;11.9;9.2
53698;PMS7003;68408;53.952;27.612;2023-08-31T06:30:36;14.3;12.6;10.3
53698;PMS7003;68408;53.952;27.612;2023-08-31T06:35:50;15.4;12.9;10.1
53698;PMS7003;68408;53.952;27.612;2023-08-31T06:41:10;15.5;12.9;9.8
53698;PMS7003;68408;53.952;27.612;2023-08-31T06:46:02;15.3;13.5;10.6
53698;PMS7003;68408;53.952;27.612;2023-08-31T06:50:30;15.1;13.1;10.2
53698;PMS7003;68408;53.952;27.612;2023-08-31T06:55:30;15.5;13.2;10.5
53698;PMS7003;68408;53.952;27.612;2023-08-31T07:01:05;20.1;17.2;12.3
53698;PMS7003;68408;53.952;27.612;2023-08-31T07:06:10;15;12.9;10
53698;PMS7003;68408;53.952;27.612;2023-08-31T07:11:10;14.6;12.6;10
53698;PMS7003;68408;53.952;27.612;2023-08-31T07:16:10;14.3;12.9;9.8
53698;PMS7003;68408;53.952;27.612;2023-08-31T07:20:30;14.6;12.9;10.2
53698;PMS7003;68408;53.952;27.612;2023-08-31T07:25:50;17.4;14.9;11.2
53698;PMS7003;68408;53.952;27.612;2023-08-31T07:31:10;19;15.9;12.4
53698;PMS7003;68408;53.952;27.612;2023-08-31T07:35:50;15.2;12.8;10.5
53698;PMS7003;68408;53.952;27.612;2023-08-31T07:40:36;14.1;13.1;10
53698;PMS7003;68408;53.952;27.612;2023-08-31T07:45:36;16.5;14.2;11.4
53698;PMS7003;68408;53.952;27.612;2023-08-31T07:51:10;18.5;15.9;12.4
53698;PMS7003;68408;53.952;27.612;2023-08-31T07:56:10;17.5;15.2;11.9
53698;PMS7003;68408;53.952;27.612;2023-08-31T08:01:10;20.9;17.7;13.3
53698;PMS7003;68408;53.952;27.612;2023-08-31T08:05:59;18.5;16.4;12.2
53698;PMS7003;68408;53.952;27.612;2023-08-31T08:10:36;18.9;16.3;12.4
53698;PMS7003;68408;53.952;27.612;2023-08-31T08:15:30;15.7;14.2;11.3
53698;PMS7003;68408;53.952;27.612;2023-08-31T08:21:10;15.4;13.3;10.3
53698;PMS7003;68408;53.952;27.612;2023-08-31T08:25:30;15.4;13.6;10.8
53698;PMS7003;68408;53.952;27.612;2023-08-31T08:30:46;14.7;13;10.7
53698;PMS7003;68408;53.952;27.612;2023-08-31T08:35:30;14.6;12.2;9.6
53698;PMS7003;68408;53.952;27.612;2023-08-31T08:41:10;13.1;11.9;9.6
53698;PMS7003;68408;53.952;27.612;2023-08-31T08:46:10;14.9;12.9;10.5
53698;PMS7003;68408;53.952;27.612;2023-08-31T08:51:02;14.5;12.5;10.1
53698;PMS7003;68408;53.952;27.612;2023-08-31T08:55:58;15;12.9;10.5
53698;PMS7003;68408;53.952;27.612;2023-08-31T09:00:42;12.7;11.2;9.3
53698;PMS7003;68408;53.952;27.612;2023-08-31T09:05:44;12.2;10.7;8.4
53698;PMS7003;68408;53.952;27.612;2023-08-31T09:11:19;11.9;10.5;8.6
53698;PMS7003;68408;53.952;27.612;2023-08-31T09:16:02;10.5;9.8;8.4
53698;PMS7003;68408;53.952;27.612;2023-08-31T09:20:43;11.7;10.2;8.6
53698;PMS7003;68408;53.952;27.612;2023-08-31T09:25:38;11.1;10.6;8.6
53698;PMS7003;68408;53.952;27.612;2023-08-31T09:31:04;11.4;10.2;8.6
53698;PMS7003;68408;53.952;27.612;2023-08-31T09:36:10;11.9;10.9;9.1
53698;PMS7003;68408;53.952;27.612;2023-08-31T09:41:03;12.5;10.7;8.9
53698;PMS7003;68408;53.952;27.612;2023-08-31T09:46:10;11.9;10.5;8.5
53698;PMS7003;68408;53.952;27.612;2023-08-31T09:50:31;12.7;11;8.7
53698;PMS7003;68408;53.952;27.612;2023-08-31T09:56:02;11.6;10.4;8.6
53698;PMS7003;68408;53.952;27.612;2023-08-31T10:01:10;11.8;10.6;8.9
53698;PMS7003;68408;53.952;27.612;2023-08-31T10:05:30;11.7;10.3;8.8
53698;PMS7003;68408;53.952;27.612;2023-08-31T10:10:30;13.8;12.2;10.1
53698;PMS7003;68408;53.952;27.612;2023-08-31T10:15:40;15.6;14.3;11
53698;PMS7003;68408;53.952;27.612;2023-08-31T10:20:30;15.1;13.2;10.5
53698;PMS7003;68408;53.952;27.612;2023-08-31T10:26:10;13.8;12.2;10
53698;PMS7003;68408;53.952;27.612;2023-08-31T10:31:14;13.6;12.4;10
53698;PMS7003;68408;53.952;27.612;2023-08-31T10:35:59;13;11;9
53698;PMS7003;68408;53.952;27.612;2023-08-31T10:41:24;16;13.9;11.1
53698;PMS7003;68408;53.952;27.612;2023-08-31T10:45:50;12.5;11.3;9.1
53698;PMS7003;68408;53.952;27.612;2023-08-31T10:50:52;12.3;11;9.2
53698;PMS7003;68408;53.952;27.612;2023-08-31T10:55:50;15.6;13.3;10.5
53698;PMS7003;68408;53.952;27.612;2023-08-31T11:00:50;16.2;14.7;11.6
53698;PMS7003;68408;53.952;27.612;2023-08-31T11:05:36;14;12.3;10.1
53698;PMS7003;68408;53.952;27.612;2023-08-31T11:11:00;13.1;11.8;9.6
53698;PMS7003;68408;53.952;27.612;2023-08-31T11:16:06;12.7;11.1;9.1
53698;PMS7003;68408;53.952;27.612;2023-08-31T11:20:54;12.3;11.1;9.4
53698;PMS7003;68408;53.952;27.612;2023-08-31T11:26:10;14.3;13.1;10.3
53698;PMS7003;68408;53.952;27.612;2023-08-31T11:31:10;12;10.4;8.7
53698;PMS7003;68408;53.952;27.612;2023-08-31T11:35:36;11.7;10.6;8.7
53698;PMS7003;68408;53.952;27.612;2023-08-31T11:40:58;9.5;8.9;7.5
53698;PMS7003;68408;53.952;27.612;2023-08-31T11:45:30;9.6;8.9;7.4
53698;PMS7003;68408;53.952;27.612;2023-08-31T11:50:44;9.6;8.3;7
53698;PMS7003;68408;53.952;27.612;2023-08-31T11:55:30;8.1;7.1;5.8
53698;PMS7003;68408;53.952;27.612;2023-08-31T12:00:54;9.3;8.6;6.8
53698;PMS7003;68408;53.952;27.612;2023-08-31T12:06:10;9.8;7.9;6.8
53698;PMS7003;68408;53.952;27.612;2023-08-31T12:11:10;9.1;8.3;6.8
53698;PMS7003;68408;53.952;27.612;2023-08-31T12:15:58;9.4;8;6.6
53698;PMS7003;68408;53.952;27.612;2023-08-31T12:21:10;8.7;7.9;6.7
53698;PMS7003;68408;53.952;27.612;2023-08-31T12:26:02;10.5;8.8;7.3
53698;PMS7003;68408;53.952;27.612;2023-08-31T12:30:58;9.2;8.5;6.8
53698;PMS7003;68408;53.952;27.612;2023-08-31T12:35:54;8.9;8;6.8
53698;PMS7003;68408;53.952;27.612;2023-08-31T12:40:30;7.8;6.8;5.6
53698;PMS7003;68408;53.952;27.612;2023-08-31T12:45:36;7.4;5.9;4.9
53698;PMS7003;68408;53.952;27.612;2023-08-31T12:50:30;7;6;4.9
53698;PMS7003;68408;53.952;27.612;2023-08-31T12:56:10;7.9;5.8;5.2
53698;PMS7003;68408;53.952;27.612;2023-08-31T13:01:10;6.6;5.4;4.6
53698;PMS7003;68408;53.952;27.612;2023-08-31T13:05:58;7;5.3;4.4
53698;PMS7003;68408;53.952;27.612;2023-08-31T13:11:10;5.9;5.5;4.5
53698;PMS7003;68408;53.952;27.612;2023-08-31T13:16:02;6.6;5.5;4.6
53698;PMS7003;68408;53.952;27.612;2023-08-31T13:20:38;6.1;5.5;4.6
53698;PMS7003;68408;53.952;27.612;2023-08-31T13:25:36;6.3;5.6;4.8
53698;PMS7003;68408;53.952;27.612;2023-08-31T13:30:36;7.4;6.2;5.5
53698;PMS7003;68408;53.952;27.612;2023-08-31T13:36:10;6.2;5.7;4.9
53698;PMS7003;68408;53.952;27.612;2023-08-31T13:40:30;6.7;6.2;5.3
53698;PMS7003;68408;53.952;27.612;2023-08-31T13:46:08;6.1;5.4;4.6
53698;PMS7003;68408;53.952;27.612;2023-08-31T13:50:54;6.7;5.7;4.9
53698;PMS7003;68408;53.952;27.612;2023-08-31T13:55:56;6.4;5.6;4.8
53698;PMS7003;68408;53.952;27.612;2023-08-31T14:01:10;6.4;6;4.7
53698;PMS7003;68408;53.952;27.612;2023-08-31T14:05:50;6.1;5.1;4.2
53698;PMS7003;68408;53.952;27.612;2023-08-31T14:10:58;6.3;5.9;5.1
53698;PMS7003;68408;53.952;27.612;2023-08-31T14:15:46;7.1;6.5;5.3
53698;PMS7003;68408;53.952;27.612;2023-08-31T14:20:44;4;3.5;3.1
53698;PMS7003;68408;53.952;27.612;2023-08-31T14:26:10;4.8;3.7;3.1
53698;PMS7003;68408;53.952;27.612;2023-08-31T14:30:30;8.8;7.6;6
53698;PMS7003;68408;53.952;27.612;2023-08-31T14:36:11;4.1;3.4;3.1
53698;PMS7003;68408;53.952;27.612;2023-08-31T14:40:54;3.2;2.8;2.4
53698;PMS7003;68408;53.952;27.612;2023-08-31T14:46:10;3.9;2.8;2.4
53698;PMS7003;68408;53.952;27.612;2023-08-31T14:51:10;4.7;3.6;3.1
53698;PMS7003;68408;53.952;27.612;2023-08-31T14:55:50;4.1;3.1;2.6
53698;PMS7003;68408;53.952;27.612;2023-08-31T15:01:10;3.9;3.2;2.8
53698;PMS7003;68408;53.952;27.612;2023-08-31T15:05:36;3.6;2.8;2.4
53698;PMS7003;68408;53.952;27.612;2023-08-31T15:10:50;6.5;5.3;4.5
53698;PMS7003;68408;53.952;27.612;2023-08-31T15:15:54;4.5;3.8;3.4
53698;PMS7003;68408;53.952;27.612;2023-08-31T15:20:30;5.9;4.8;3.9
53698;PMS7003;68408;53.952;27.612;2023-08-31T15:25:58;3.7;3.4;2.9
53698;PMS7003;68408;53.952;27.612;2023-08-31T15:30:54;3.7;2.9;2.6
53698;PMS7003;68408;53.952;27.612;2023-08-31T15:36:10;3.4;3;2.5
53698;PMS7003;68408;53.952;27.612;2023-08-31T15:41:12;4.2;3.4;2.9
53698;PMS7003;68408;53.952;27.612;2023-08-31T15:45:52;6;4.9;4
53698;PMS7003;68408;53.952;27.612;2023-08-31T15:51:10;5.1;4.4;3.8
53698;PMS7003;68408;53.952;27.612;2023-08-31T15:55:40;4.3;3.6;3.1
53698;PMS7003;68408;53.952;27.612;2023-08-31T16:00:44;4.2;3.3;2.8
53698;PMS7003;68408;53.952;27.612;2023-08-31T16:05:38;4.8;4.2;3.8
53698;PMS7003;68408;53.952;27.612;2023-08-31T16:10:46;4.4;3.3;2.8
53698;PMS7003;68408;53.952;27.612;2023-08-31T16:15:54;5.8;5;4.3
53698;PMS7003;68408;53.952;27.612;2023-08-31T16:20:54;3.2;2.6;2.2
53698;PMS7003;68408;53.952;27.612;2023-08-31T16:26:10;2.1;1.8;1.6
53698;PMS7003;68408;53.952;27.612;2023-08-31T16:31:10;2.4;2.1;1.8
53698;PMS7003;68408;53.952;27.612;2023-08-31T16:35:36;2.8;2.3;2
53698;PMS7003;68408;53.952;27.612;2023-08-31T16:41:10;3.6;2.7;2.4
53698;PMS7003;68408;53.952;27.612;2023-08-31T16:45:40;2.9;2.1;1.7
53698;PMS7003;68408;53.952;27.612;2023-08-31T16:50:30;3.2;2.6;2.3
53698;PMS7003;68408;53.952;27.612;2023-08-31T16:55:54;3.3;2.6;2.2
53698;PMS7003;68408;53.952;27.612;2023-08-31T17:00:46;3.6;3.4;2.8
53698;PMS7003;68408;53.952;27.612;2023-08-31T17:05:32;5.2;4.5;3.6
53698;PMS7003;68408;53.952;27.612;2023-08-31T17:10:54;3.3;3;2.6
53698;PMS7003;68408;53.952;27.612;2023-08-31T17:16:10;4.5;3.3;2.8
53698;PMS7003;68408;53.952;27.612;2023-08-31T17:21:10;4.8;3;2.7
53698;PMS7003;68408;53.952;27.612;2023-08-31T17:25:58;3.8;3.1;2.5
53698;PMS7003;68408;53.952;27.612;2023-08-31T17:31:08;4.4;3.4;3
53698;PMS7003;68408;53.952;27.612;2023-08-31T17:35:40;4.2;3.2;2.7
53698;PMS7003;68408;53.952;27.612;2023-08-31T17:40:36;4.7;3.9;3.5
53698;PMS7003;68408;53.952;27.612;2023-08-31T17:45:48;6.2;5.3;4.2
53698;PMS7003;68408;53.952;27.612;2023-08-31T17:50:46;7.8;6.4;5.5
53698;PMS7003;68408;53.952;27.612;2023-08-31T17:56:10;6.6;6.1;5.2
53698;PMS7003;68408;53.952;27.612;2023-08-31T18:00:55;7.8;6.2;4.9
53698;PMS7003;68408;53.952;27.612;2023-08-31T18:06:10;5.4;4.4;3.5
53698;PMS7003;68408;53.952;27.612;2023-08-31T18:11:10;6.3;5.1;4.2
53698;PMS7003;68408;53.952;27.612;2023-08-31T18:15:50;5.4;4.3;3.6
53698;PMS7003;68408;53.952;27.612;2023-08-31T18:20:57;6.3;5.6;4.5
53698;PMS7003;68408;53.952;27.612;2023-08-31T18:25:46;7.3;6.2;5
53698;PMS7003;68408;53.952;27.612;2023-08-31T18:30:36;7;5.6;4.6
53698;PMS7003;68408;53.952;27.612;2023-08-31T18:35:55;7.3;6;4.8
53698;PMS7003;68408;53.952;27.612;2023-08-31T18:40:49;7.9;7;5.9
53698;PMS7003;68408;53.952;27.612;2023-08-31T18:45:42;8.1;6.9;5.4
53698;PMS7003;68408;53.952;27.612;2023-08-31T18:50:54;7;6.1;5
53698;PMS7003;68408;53.952;27.612;2023-08-31T18:56:10;7.6;6.5;5.3
53698;PMS7003;68408;53.952;27.612;2023-08-31T19:01:10;7.5;6;4.7
53698;PMS7003;68408;53.952;27.612;2023-08-31T19:06:02;6.2;5.7;5
53698;PMS7003;68408;53.952;27.612;2023-08-31T19:10:30;11.6;9.6;7.7
53698;PMS7003;68408;53.952;27.612;2023-08-31T19:15:30;9.8;8.6;6.8
53698;PMS7003;68408;53.952;27.612;2023-08-31T19:20:30;8.9;6.9;5.9
53698;PMS7003;68408;53.952;27.612;2023-08-31T19:26:10;10;7.8;6.1
53698;PMS7003;68408;53.952;27.612;2023-08-31T19:30:46;9.3;7.5;5.8
53698;PMS7003;68408;53.952;27.612;2023-08-31T19:36:10;9.1;7.7;6.4
53698;PMS7003;68408;53.952;27.612;2023-08-31T19:40:55;8.8;7.4;5.8
53698;PMS7003;68408;53.952;27.612;2023-08-31T19:45:43;9.5;7.9;6.5
53698;PMS7003;68408;53.952;27.612;2023-08-31T19:51:10;9.3;7.9;5.7
53698;PMS7003;68408;53.952;27.612;2023-08-31T19:56:02;8.9;7;5.4
53698;PMS7003;68408;53.952;27.612;2023-08-31T20:00:50;9.1;8;6.2
53698;PMS7003;68408;53.952;27.612;2023-08-31T20:05:42;9.3;7.8;6.3
53698;PMS7003;68408;53.952;27.612;2023-08-31T20:10:30;9.9;8.4;6.8
53698;PMS7003;68408;53.952;27.612;2023-08-31T20:16:10;9.4;8.3;6.2
53698;PMS7003;68408;53.952;27.612;2023-08-31T20:20:47;11.1;8.3;6.7
53698;PMS7003;68408;53.952;27.612;2023-08-31T20:25:42;9.8;8.4;6.6
53698;PMS7003;68408;53.952;27.612;2023-08-31T20:30:55;10.3;8.6;6.6
53698;PMS7003;68408;53.952;27.612;2023-08-31T20:35:36;11.1;8.9;7.3
53698;PMS7003;68408;53.952;27.612;2023-08-31T20:41:14;16.3;13.5;10.1
53698;PMS7003;68408;53.952;27.612;2023-08-31T20:45:52;10.4;8.9;6.9
53698;PMS7003;68408;53.952;27.612;2023-08-31T20:50:30;9.3;7.9;6.3
53698;PMS7003;68408;53.952;27.612;2023-08-31T20:55:30;8.8;7.3;5.6
53698;PMS7003;68408;53.952;27.612;2023-08-31T21:00:30;9.7;8.2;5.9
53698;PMS7003;68408;53.952;27.612;2023-08-31T21:06:10;10.3;8.2;6.3
53698;PMS7003;68408;53.952;27.612;2023-08-31T21:11:02;9.7;7.9;6
53698;PMS7003;68408;53.952;27.612;2023-08-31T21:15:42;9.7;8.3;6.5
53698;PMS7003;68408;53.952;27.612;2023-08-31T21:20:55;10.7;8.5;6.4
53698;PMS7003;68408;53.952;27.612;2023-08-31T21:25:31;9.9;8.4;6.3
53698;PMS7003;68408;53.952;27.612;2023-08-31T21:31:10;10.6;8.6;6.9
53698;PMS7003;68408;53.952;27.612;2023-08-31T21:36:02;9.2;8.2;6.5
53698;PMS7003;68408;53.952;27.612;2023-08-31T21:40:43;10.7;9.4;7.2
53698;PMS7003;68408;53.952;27.612;2023-08-31T21:45:52;10.4;8.5;6.4
53698;PMS7003;68408;53.952;27.612;2023-08-31T21:50:44;10.4;8.5;6.5
53698;PMS7003;68408;53.952;27.612;2023-08-31T21:56:10;10.9;9.2;7.1
53698;PMS7003;68408;53.952;27.612;2023-08-31T22:00:30;10.7;8.5;6.5
53698;PMS7003;68408;53.952;27.612;2023-08-31T22:05:42;9.3;8.1;6.1
53698;PMS7003;68408;53.952;27.612;2023-08-31T22:10:54;10.6;8.9;7
53698;PMS7003;68408;53.952;27.612;2023-08-31T22:15:30;10.6;8.3;6.4
53698;PMS7003;68408;53.952;27.612;2023-08-31T22:21:10;10.4;9.2;6.8
53698;PMS7003;68408;53.952;27.612;2023-08-31T22:25:56;10.6;8.5;6.4
53698;PMS7003;68408;53.952;27.612;2023-08-31T22:30:36;10.5;8.7;6.5
53698;PMS7003;68408;53.952;27.612;2023-08-31T22:35:30;9.4;7.6;6.2
53698;PMS7003;68408;53.952;27.612;2023-08-31T22:40:36;9.9;8.6;6.7
53698;PMS7003;68408;53.952;27.612;2023-08-31T22:46:10;8.3;6.8;5.6
53698;PMS7003;68408;53.952;27.612;2023-08-31T22:50:30;10;8.1;6.3
53698;PMS7003;68408;53.952;27.612;2023-08-31T22:55:42;8.4;7.7;6.3
53698;PMS7003;68408;53.952;27.612;2023-08-31T23:00:54;9.9;7.9;6
53698;PMS7003;68408;53.952;27.612;2023-08-31T23:06:08;9.8;8.3;6.1
53698;PMS7003;68408;53.952;27.612;2023-08-31T23:11:02;10.4;8.4;6.5
53698;PMS7003;68408;53.952;27.612;2023-08-31T23:15:38;10.4;8.9;6.7
53698;PMS7003;68408;53.952;27.612;2023-08-31T23:20:30;10.3;8.6;6.6
53698;PMS7003;68408;53.952;27.612;2023-08-31T23:25:30;10;8.5;6.4
53698;PMS7003;68408;53.952;27.612;2023-08-31T23:30:36;9.2;7.7;6
53698;PMS7003;68408;53.952;27.612;2023-08-31T23:36:10;10.7;8.8;6.7
53698;PMS7003;68408;53.952;27.612;2023-08-31T23:40:46;9.8;7.9;6.4
53698;PMS7003;68408;53.952;27.612;2023-08-31T23:45:42;11.1;8.5;6.6
53698;PMS7003;68408;53.952;27.612;2023-08-31T23:50:54;9.7;8.6;6.9
53698;PMS7003;68408;53.952;27.612;2023-08-31T23:56:03;8.6;7.6;6.1
